Time;durP1;ratioP1;P1;durP2;ratioP2;P2;SDS_P1;SDS_P2;PMS_P1;PMS_P2;Temp;Humidity;BMP_temperature;BMP_pressure;BME280_temperature;BME280_humidity;BME280_pressure;Samples;Min_cycle;Max_cycle;Signal;HPM_P1;HPM_P2
2023/03/06 00:00:21;;;;;;;21.58;10.07;;;;;;;;;;5109721;28;20028;-74
2023/03/06 00:02:47;;;;;;;23.23;9.93;;;;;;;;;;5108572;28;20088;-73
2023/03/06 00:05:14;;;;;;;18.95;8.07;;;;;;;;;;5106197;28;20020;-73
2023/03/06 00:07:40;;;;;;;23.52;9.35;;;;;;;;;;5107700;28;20035;-74
2023/03/06 00:10:06;;;;;;;19.88;9.13;;;;;;;;;;5103718;28;20024;-74
2023/03/06 00:12:32;;;;;;;30.15;9.77;;;;;;;;;;5106557;28;20129;-75
2023/03/06 00:14:58;;;;;;;19.90;7.88;;;;;;;;;;5102344;28;20477;-75
2023/03/06 00:17:24;;;;;;;27.25;11.18;;;;;;;;;;5103826;28;20095;-75
2023/03/06 00:19:50;;;;;;;23.35;8.20;;;;;;;;;;5100979;28;20098;-74
2023/03/06 00:22:16;;;;;;;25.45;9.65;;;;;;;;;;5099793;28;20132;-75
2023/03/06 00:24:42;;;;;;;26.52;8.02;;;;;;;;;;5099381;28;20028;-75
2023/03/06 00:27:09;;;;;;;21.50;8.80;;;;;;;;;;5102920;28;20074;-73
2023/03/06 00:29:35;;;;;;;23.88;7.90;;;;;;;;;;5102003;28;20024;-75
2023/03/06 00:32:01;;;;;;;22.52;10.18;;;;;;;;;;5101126;28;20024;-75
2023/03/06 00:34:27;;;;;;;20.60;8.98;;;;;;;;;;5100086;28;20020;-75
2023/03/06 00:36:53;;;;;;;16.33;8.02;;;;;;;;;;5099269;28;20020;-75
2023/03/06 00:39:19;;;;;;;22.75;9.93;;;;;;;;;;5101399;28;20030;-75
2023/03/06 00:41:45;;;;;;;24.52;9.07;;;;;;;;;;5102151;28;20039;-75
2023/03/06 00:44:14;;;;;;;19.13;7.50;;;;;;;;;;5102752;28;20039;-75
2023/03/06 00:46:40;;;;;;;24.13;8.40;;;;;;;;;;5100414;28;20031;-75
2023/03/06 00:49:06;;;;;;;17.98;9.00;;;;;;;;;;5100615;28;20047;-76
2023/03/06 00:51:32;;;;;;;19.23;8.63;;;;;;;;;;5101087;28;20024;-75
2023/03/06 00:53:58;;;;;;;24.17;9.63;;;;;;;;;;5099282;28;20020;-75
2023/03/06 00:56:24;;;;;;;19.52;8.80;;;;;;;;;;5099009;28;20473;-76
2023/03/06 00:58:50;;;;;;;20.83;8.13;;;;;;;;;;5101325;28;20058;-76
2023/03/06 01:01:16;;;;;;;34.53;10.70;;;;;;;;;;5105195;28;20039;-75
2023/03/06 01:03:42;;;;;;;23.77;8.45;;;;;;;;;;5103546;28;20080;-75
2023/03/06 01:06:08;;;;;;;28.15;9.68;;;;;;;;;;5100389;28;20450;-76
2023/03/06 01:08:34;;;;;;;23.35;9.23;;;;;;;;;;5100955;28;20024;-75
2023/03/06 01:11:00;;;;;;;26.63;9.27;;;;;;;;;;5101980;28;20381;-75
2023/03/06 01:13:26;;;;;;;23.77;9.32;;;;;;;;;;5104444;28;20024;-75
2023/03/06 01:15:52;;;;;;;26.40;9.30;;;;;;;;;;5105009;28;20047;-76
2023/03/06 01:18:18;;;;;;;22.27;8.82;;;;;;;;;;5105351;28;20062;-76
2023/03/06 01:20:44;;;;;;;27.38;10.20;;;;;;;;;;5102745;28;20096;-75
2023/03/06 01:23:10;;;;;;;27.20;8.85;;;;;;;;;;5097379;28;20059;-75
2023/03/06 01:25:36;;;;;;;23.48;10.00;;;;;;;;;;5100670;28;20024;-75
2023/03/06 01:28:02;;;;;;;29.10;10.70;;;;;;;;;;5099022;28;20522;-76
2023/03/06 01:30:29;;;;;;;21.52;9.75;;;;;;;;;;5097408;28;20153;-75
2023/03/06 01:32:55;;;;;;;25.05;10.95;;;;;;;;;;5097917;28;20032;-75
2023/03/06 01:35:21;;;;;;;30.35;10.63;;;;;;;;;;5099903;28;20358;-76
2023/03/06 01:37:47;;;;;;;27.77;11.70;;;;;;;;;;5102598;28;20027;-76
2023/03/06 01:40:13;;;;;;;25.50;10.05;;;;;;;;;;5101640;28;20091;-75
2023/03/06 01:42:39;;;;;;;29.73;10.30;;;;;;;;;;5097424;28;20145;-75
2023/03/06 01:45:08;;;;;;;24.52;11.32;;;;;;;;;;5096780;28;20027;-76
2023/03/06 01:47:34;;;;;;;24.70;9.53;;;;;;;;;;5096374;28;20020;-75
2023/03/06 01:50:02;;;;;;;32.45;10.45;;;;;;;;;;5096244;28;20024;-75
2023/03/06 01:52:30;;;;;;;32.53;10.18;;;;;;;;;;5097542;28;20016;-76
2023/03/06 01:55:00;;;;;;;21.45;8.48;;;;;;;;;;5099269;28;20480;-75
2023/03/06 01:57:28;;;;;;;23.40;8.57;;;;;;;;;;5102082;28;20020;-75
2023/03/06 01:59:59;;;;;;;32.67;11.90;;;;;;;;;;5098112;28;20028;-76
2023/03/06 02:02:27;;;;;;;23.92;10.38;;;;;;;;;;5096420;28;20035;-75
2023/03/06 02:04:53;;;;;;;28.02;9.48;;;;;;;;;;5096141;28;20025;-75
2023/03/06 02:07:20;;;;;;;22.58;9.05;;;;;;;;;;5095523;28;20027;-75
2023/03/06 02:09:46;;;;;;;23.70;9.50;;;;;;;;;;5095682;28;20020;-75
2023/03/06 02:12:14;;;;;;;22.88;10.50;;;;;;;;;;5095194;28;20028;-75
2023/03/06 02:14:40;;;;;;;26.77;11.85;;;;;;;;;;5095089;28;20074;-75
2023/03/06 02:17:08;;;;;;;22.75;9.48;;;;;;;;;;5094471;28;20052;-75
2023/03/06 02:19:38;;;;;;;25.73;8.45;;;;;;;;;;5095167;28;20028;-75
2023/03/06 02:22:04;;;;;;;20.13;8.38;;;;;;;;;;5095200;28;20039;-75
2023/03/06 02:24:34;;;;;;;22.45;10.25;;;;;;;;;;5094628;28;20016;-75
2023/03/06 02:27:02;;;;;;;22.05;10.10;;;;;;;;;;5094576;28;20028;-75
2023/03/06 02:29:29;;;;;;;22.25;11.48;;;;;;;;;;5094620;28;20024;-75
2023/03/06 02:31:55;;;;;;;18.75;8.38;;;;;;;;;;5094323;28;20098;-76
2023/03/06 02:34:21;;;;;;;25.27;8.65;;;;;;;;;;5095375;28;20456;-76
2023/03/06 02:37:08;;;;;;;25.00;9.18;;;;;;;;;;5097055;28;20042;-75
2023/03/06 02:39:38;;;;;;;23.92;8.60;;;;;;;;;;5095365;28;20031;-75
2023/03/06 02:42:04;;;;;;;24.80;9.68;;;;;;;;;;5096574;28;20056;-75
2023/03/06 02:44:30;;;;;;;23.90;8.55;;;;;;;;;;5096863;28;20530;-76
2023/03/06 02:46:56;;;;;;;17.75;8.35;;;;;;;;;;5095535;28;20108;-75
2023/03/06 02:49:22;;;;;;;24.45;9.27;;;;;;;;;;5093815;28;20541;-75
2023/03/06 02:51:48;;;;;;;23.92;10.68;;;;;;;;;;5094048;28;20053;-75
2023/03/06 02:54:17;;;;;;;24.40;10.02;;;;;;;;;;5094350;28;20043;-75
2023/03/06 02:56:43;;;;;;;24.33;9.23;;;;;;;;;;5094756;28;20137;-76
2023/03/06 02:59:09;;;;;;;29.05;10.95;;;;;;;;;;5094220;28;20031;-75
2023/03/06 03:01:35;;;;;;;21.67;9.00;;;;;;;;;;5096208;28;20032;-75
2023/03/06 03:04:01;;;;;;;29.63;11.45;;;;;;;;;;5095232;28;20023;-75
2023/03/06 03:06:27;;;;;;;29.70;10.68;;;;;;;;;;5095236;28;20032;-76
2023/03/06 03:08:53;;;;;;;21.65;9.23;;;;;;;;;;5094314;28;20020;-75
2023/03/06 03:11:19;;;;;;;24.05;10.45;;;;;;;;;;5093845;28;20447;-75
2023/03/06 03:13:45;;;;;;;24.05;8.50;;;;;;;;;;5093625;28;20499;-75
2023/03/06 03:16:14;;;;;;;21.85;7.88;;;;;;;;;;5092283;28;20048;-75
2023/03/06 03:18:40;;;;;;;18.50;8.68;;;;;;;;;;5095624;28;20020;-75
2023/03/06 03:21:07;;;;;;;27.80;10.38;;;;;;;;;;5101417;28;20040;-75
2023/03/06 03:23:33;;;;;;;19.63;8.52;;;;;;;;;;5095215;28;20099;-73
2023/03/06 03:26:10;;;;;;;24.95;9.18;;;;;;;;;;5093764;28;20063;-75
2023/03/06 03:28:36;;;;;;;37.10;10.05;;;;;;;;;;5092853;28;20024;-76
2023/03/06 03:31:06;;;;;;;22.05;10.43;;;;;;;;;;5095384;28;20472;-75
2023/03/06 03:33:32;;;;;;;;;;;;;;;;;;5094272;28;20027;-75
2023/03/06 03:35:58;;;;;;;25.60;9.10;;;;;;;;;;5094828;28;19904;-75
2023/03/06 03:38:24;;;;;;;26.23;9.85;;;;;;;;;;5094068;28;20465;-75
2023/03/06 03:40:50;;;;;;;34.63;10.52;;;;;;;;;;5093430;28;20095;-75
2023/03/06 03:43:16;;;;;;;29.75;11.15;;;;;;;;;;5093454;28;20503;-75
2023/03/06 03:45:42;;;;;;;22.88;10.10;;;;;;;;;;5093182;28;20031;-75
2023/03/06 03:48:08;;;;;;;25.17;11.45;;;;;;;;;;5092077;28;20024;-75
2023/03/06 03:50:34;;;;;;;23.67;8.55;;;;;;;;;;5092981;28;20016;-75
2023/03/06 03:53:00;;;;;;;29.88;10.45;;;;;;;;;;5093086;28;20049;-75
2023/03/06 03:55:26;;;;;;;19.65;9.20;;;;;;;;;;5092878;28;20059;-75
2023/03/06 03:57:52;;;;;;;25.90;9.75;;;;;;;;;;5092933;28;20027;-75
2023/03/06 04:00:18;;;;;;;18.30;9.27;;;;;;;;;;5092937;28;20105;-75
2023/03/06 04:02:45;;;;;;;27.90;8.77;;;;;;;;;;5092681;28;20042;-75
2023/03/06 04:05:13;;;;;;;25.70;9.57;;;;;;;;;;5092955;28;20091;-75
2023/03/06 04:07:39;;;;;;;18.83;8.20;;;;;;;;;;5092980;28;20431;-75
2023/03/06 04:10:06;;;;;;;22.70;10.10;;;;;;;;;;5093031;28;20027;-75
2023/03/06 04:12:32;;;;;;;20.48;8.80;;;;;;;;;;5093005;28;20031;-75
2023/03/06 04:14:58;;;;;;;18.38;7.32;;;;;;;;;;5092600;28;20024;-76
2023/03/06 04:17:25;;;;;;;19.55;8.73;;;;;;;;;;5092904;28;20012;-76
2023/03/06 04:19:51;;;;;;;27.08;9.15;;;;;;;;;;5092824;28;20020;-76
2023/03/06 04:22:17;;;;;;;21.58;8.48;;;;;;;;;;5091292;28;20043;-75
2023/03/06 04:24:43;;;;;;;15.77;8.52;;;;;;;;;;5091404;28;20077;-75
2023/03/06 04:27:09;;;;;;;22.45;10.25;;;;;;;;;;5092737;28;20024;-75
2023/03/06 04:29:38;;;;;;;23.95;8.60;;;;;;;;;;5093127;28;20028;-76
2023/03/06 04:32:04;;;;;;;28.27;8.25;;;;;;;;;;5092714;28;20025;-75
2023/03/06 04:34:30;;;;;;;24.63;8.98;;;;;;;;;;5092692;28;20304;-75
2023/03/06 04:36:56;;;;;;;19.27;8.73;;;;;;;;;;5092750;28;20020;-75
2023/03/06 04:39:22;;;;;;;23.70;9.27;;;;;;;;;;5094522;28;20354;-75
2023/03/06 04:41:48;;;;;;;26.85;9.98;;;;;;;;;;5096293;28;20392;-75
2023/03/06 04:44:14;;;;;;;23.80;10.73;;;;;;;;;;5098546;28;20022;-75
2023/03/06 04:46:40;;;;;;;18.90;7.88;;;;;;;;;;5098216;28;20035;-75
2023/03/06 04:49:06;;;;;;;19.02;9.13;;;;;;;;;;5098079;28;20468;-75
2023/03/06 04:51:32;;;;;;;17.90;7.65;;;;;;;;;;5098198;28;20027;-75
2023/03/06 04:53:58;;;;;;;20.10;8.85;;;;;;;;;;5098179;28;20020;-75
2023/03/06 04:56:24;;;;;;;22.70;9.70;;;;;;;;;;5095801;28;20412;-75
2023/03/06 04:58:50;;;;;;;20.23;10.07;;;;;;;;;;5095910;28;20024;-75
2023/03/06 05:01:16;;;;;;;22.38;7.55;;;;;;;;;;5095908;28;20417;-76
2023/03/06 05:03:42;;;;;;;23.42;10.07;;;;;;;;;;5095854;28;20066;-75
2023/03/06 05:06:08;;;;;;;22.33;8.20;;;;;;;;;;5096018;28;20385;-75
2023/03/06 05:08:34;;;;;;;17.15;8.45;;;;;;;;;;5095950;28;20024;-75
2023/03/06 05:11:01;;;;;;;20.35;8.57;;;;;;;;;;5095920;28;20066;-75
2023/03/06 05:13:27;;;;;;;23.40;8.57;;;;;;;;;;5096268;28;20082;-75
2023/03/06 05:15:54;;;;;;;22.40;9.65;;;;;;;;;;5095642;28;20055;-75
2023/03/06 05:18:20;;;;;;;24.23;8.55;;;;;;;;;;5097035;28;20026;-75
2023/03/06 05:20:46;;;;;;;23.55;10.05;;;;;;;;;;5096162;28;20476;-76
2023/03/06 05:23:12;;;;;;;21.73;7.57;;;;;;;;;;5097526;28;20119;-75
2023/03/06 05:25:39;;;;;;;26.48;10.52;;;;;;;;;;5098873;28;20457;-76
2023/03/06 05:28:05;;;;;;;21.83;9.30;;;;;;;;;;5098410;28;20108;-75
2023/03/06 05:30:31;;;;;;;20.52;9.52;;;;;;;;;;5096077;28;20020;-75
2023/03/06 05:32:57;;;;;;;18.92;8.95;;;;;;;;;;5095363;28;20114;-75
2023/03/06 05:35:24;;;;;;;20.55;8.30;;;;;;;;;;5095378;28;20089;-75
2023/03/06 05:37:50;;;;;;;21.08;10.98;;;;;;;;;;5095221;28;20050;-75
2023/03/06 05:40:16;;;;;;;21.98;9.63;;;;;;;;;;5095135;28;20106;-75
2023/03/06 05:42:42;;;;;;;23.13;7.68;;;;;;;;;;5095072;28;20036;-75
2023/03/06 05:45:09;;;;;;;18.20;8.15;;;;;;;;;;5095360;28;20109;-74
2023/03/06 05:47:35;;;;;;;18.65;8.82;;;;;;;;;;5095122;28;20035;-75
2023/03/06 05:50:01;;;;;;;24.20;8.80;;;;;;;;;;5093022;28;20108;-75
2023/03/06 05:52:27;;;;;;;22.17;10.10;;;;;;;;;;5095792;28;20020;-75
2023/03/06 05:54:54;;;;;;;20.77;6.78;;;;;;;;;;5095463;28;20027;-75
2023/03/06 05:57:20;;;;;;;21.52;7.95;;;;;;;;;;5095148;28;20533;-76
2023/03/06 05:59:46;;;;;;;19.08;7.93;;;;;;;;;;5095031;28;20488;-75
2023/03/06 06:02:14;;;;;;;19.58;9.07;;;;;;;;;;5095057;28;20040;-75
2023/03/06 06:04:41;;;;;;;16.95;7.60;;;;;;;;;;5094876;28;20410;-75
2023/03/06 06:07:07;;;;;;;18.48;7.68;;;;;;;;;;5094679;28;20479;-75
2023/03/06 06:09:33;;;;;;;19.55;7.20;;;;;;;;;;5094663;28;20021;-75
2023/03/06 06:12:00;;;;;;;20.33;6.60;;;;;;;;;;5094348;28;20027;-75
2023/03/06 06:14:27;;;;;;;19.85;8.02;;;;;;;;;;5094385;28;20044;-75
2023/03/06 06:16:54;;;;;;;15.85;7.55;;;;;;;;;;5094330;28;20119;-75
2023/03/06 06:19:20;;;;;;;20.05;9.43;;;;;;;;;;5094413;28;20016;-75
2023/03/06 06:21:47;;;;;;;21.17;8.23;;;;;;;;;;5094411;28;20126;-75
2023/03/06 06:24:14;;;;;;;15.90;7.20;;;;;;;;;;5094559;28;20044;-75
2023/03/06 06:26:41;;;;;;;17.95;9.27;;;;;;;;;;5094359;28;20039;-75
2023/03/06 06:29:07;;;;;;;14.70;6.68;;;;;;;;;;5094298;28;20020;-75
2023/03/06 06:31:35;;;;;;;17.55;8.43;;;;;;;;;;5094170;28;20032;-75
2023/03/06 06:34:01;;;;;;;19.73;7.40;;;;;;;;;;5094268;28;20016;-75
2023/03/06 06:36:27;;;;;;;12.02;5.63;;;;;;;;;;5092918;28;20113;-75
2023/03/06 06:38:53;;;;;;;17.10;7.30;;;;;;;;;;5094101;28;20024;-75
2023/03/06 06:41:19;;;;;;;18.00;8.20;;;;;;;;;;5094344;28;20153;-74
2023/03/06 06:43:45;;;;;;;18.70;7.45;;;;;;;;;;5094223;28;20461;-74
2023/03/06 06:46:11;;;;;;;17.20;7.60;;;;;;;;;;5102985;28;20028;-75
2023/03/06 06:48:37;;;;;;;18.67;7.70;;;;;;;;;;5103460;28;20019;-75
2023/03/06 06:51:03;;;;;;;15.90;7.80;;;;;;;;;;5101874;28;20496;-75
2023/03/06 06:53:29;;;;;;;13.43;7.38;;;;;;;;;;5095457;28;20013;-75
2023/03/06 06:55:57;;;;;;;18.25;7.43;;;;;;;;;;5095035;28;20028;-74
2023/03/06 06:58:24;;;;;;;18.10;8.32;;;;;;;;;;5094944;28;20032;-75
2023/03/06 07:00:50;;;;;;;17.40;7.95;;;;;;;;;;5095673;28;20024;-74
2023/03/06 07:03:16;;;;;;;17.73;8.18;;;;;;;;;;5095693;28;20388;-74
2023/03/06 07:05:42;;;;;;;15.88;7.22;;;;;;;;;;5094549;28;20016;-76
2023/03/06 07:08:08;;;;;;;16.27;8.02;;;;;;;;;;5096453;28;20024;-75
2023/03/06 07:10:38;;;;;;;17.80;9.07;;;;;;;;;;5094436;28;20024;-74
2023/03/06 07:13:04;;;;;;;20.70;9.05;;;;;;;;;;5094825;28;20059;-76
2023/03/06 07:15:30;;;;;;;16.58;6.65;;;;;;;;;;5092192;28;20047;-76
2023/03/06 07:17:56;;;;;;;16.13;7.38;;;;;;;;;;5093934;28;20024;-76
2023/03/06 07:20:23;;;;;;;15.25;8.15;;;;;;;;;;5094896;28;20050;-76
2023/03/06 07:22:48;;;;;;;14.20;6.85;;;;;;;;;;5093177;28;20036;-76
2023/03/06 07:25:14;;;;;;;19.35;7.55;;;;;;;;;;5093164;28;20031;-76
2023/03/06 07:27:41;;;;;;;21.25;8.90;;;;;;;;;;5097562;28;20050;-76
2023/03/06 07:30:07;;;;;;;14.82;6.75;;;;;;;;;;5099009;28;20023;-76
2023/03/06 07:32:33;;;;;;;15.55;7.63;;;;;;;;;;5097064;28;20051;-75
2023/03/06 07:34:59;;;;;;;13.68;6.55;;;;;;;;;;5097038;28;20031;-75
2023/03/06 07:37:25;;;;;;;15.23;6.95;;;;;;;;;;5094702;28;20566;-75
2023/03/06 07:39:51;;;;;;;18.27;8.38;;;;;;;;;;5092259;28;20024;-76
2023/03/06 07:42:17;;;;;;;18.77;8.25;;;;;;;;;;5093126;28;20028;-75
2023/03/06 07:44:43;;;;;;;20.30;8.38;;;;;;;;;;5093030;28;20429;-76
2023/03/06 07:47:10;;;;;;;15.27;7.18;;;;;;;;;;5091772;28;20024;-76
2023/03/06 07:49:36;;;;;;;15.20;8.10;;;;;;;;;;5093046;28;20085;-76
2023/03/06 07:52:02;;;;;;;13.95;6.93;;;;;;;;;;5091883;28;20028;-76
2023/03/06 07:54:29;;;;;;;17.40;8.43;;;;;;;;;;5091512;28;20086;-75
2023/03/06 07:56:55;;;;;;;15.18;7.55;;;;;;;;;;5092391;28;20020;-74
2023/03/06 07:59:22;;;;;;;22.00;9.05;;;;;;;;;;5090932;28;20017;-74
2023/03/06 08:01:48;;;;;;;15.63;7.40;;;;;;;;;;5092517;28;20040;-76
2023/03/06 08:04:13;;;;;;;11.75;6.20;;;;;;;;;;5091481;28;20118;-74
2023/03/06 08:06:39;;;;;;;17.15;7.50;;;;;;;;;;5092765;28;20020;-74
2023/03/06 08:09:05;;;;;;;17.23;8.90;;;;;;;;;;5092640;28;20021;-76
2023/03/06 08:11:32;;;;;;;21.25;9.40;;;;;;;;;;5092615;28;20033;-76
2023/03/06 08:13:58;;;;;;;18.13;7.63;;;;;;;;;;5093786;28;20024;-76
2023/03/06 08:16:25;;;;;;;18.65;8.45;;;;;;;;;;5094772;28;20047;-74
2023/03/06 08:18:51;;;;;;;19.33;8.43;;;;;;;;;;5096042;28;20020;-74
2023/03/06 08:21:19;;;;;;;15.00;6.47;;;;;;;;;;5094818;28;20040;-76
2023/03/06 08:23:45;;;;;;;18.15;8.38;;;;;;;;;;5096084;28;20103;-76
2023/03/06 08:26:13;;;;;;;12.65;7.13;;;;;;;;;;5095089;28;20070;-74
2023/03/06 08:28:39;;;;;;;13.02;6.35;;;;;;;;;;5094752;28;20545;-75
2023/03/06 08:31:12;;;;;;;13.65;7.22;;;;;;;;;;5094594;28;20361;-75
2023/03/06 08:33:39;;;;;;;16.58;7.22;;;;;;;;;;5095995;28;20052;-75
2023/03/06 08:36:05;;;;;;;16.35;7.72;;;;;;;;;;5095671;28;20034;-74
2023/03/06 08:38:31;;;;;;;13.63;6.90;;;;;;;;;;5094388;28;20085;-76
2023/03/06 08:40:57;;;;;;;14.25;6.15;;;;;;;;;;5094358;28;20476;-75
2023/03/06 08:43:23;;;;;;;15.93;7.30;;;;;;;;;;5094279;28;20020;-76
2023/03/06 08:45:53;;;;;;;19.48;7.57;;;;;;;;;;5095587;28;20484;-74
2023/03/06 08:48:19;;;;;;;14.63;6.78;;;;;;;;;;5095735;28;20035;-75
2023/03/06 08:50:45;;;;;;;15.48;7.70;;;;;;;;;;5095620;28;20332;-75
2023/03/06 08:53:11;;;;;;;12.68;6.78;;;;;;;;;;5095564;28;20090;-75
2023/03/06 08:55:37;;;;;;;16.77;7.65;;;;;;;;;;5095340;28;20361;-75
2023/03/06 08:58:03;;;;;;;11.75;6.20;;;;;;;;;;5095445;28;20024;-75
2023/03/06 09:00:30;;;;;;;12.75;6.78;;;;;;;;;;5095383;28;20559;-76
2023/03/06 09:02:56;;;;;;;13.27;7.30;;;;;;;;;;5094154;28;20043;-75
2023/03/06 09:05:22;;;;;;;12.00;6.47;;;;;;;;;;5095294;28;20526;-75
2023/03/06 09:07:48;;;;;;;12.05;7.32;;;;;;;;;;5094752;28;20391;-75
2023/03/06 09:10:15;;;;;;;15.00;5.32;;;;;;;;;;5095751;28;20032;-76
2023/03/06 09:12:41;;;;;;;14.50;7.38;;;;;;;;;;5093741;28;20043;-76
2023/03/06 09:15:07;;;;;;;13.02;5.25;;;;;;;;;;5095118;28;20085;-75
2023/03/06 09:17:33;;;;;;;13.57;6.22;;;;;;;;;;5093686;28;20448;-75
2023/03/06 09:19:59;;;;;;;11.68;6.57;;;;;;;;;;5095027;28;20115;-74
2023/03/06 09:22:25;;;;;;;11.45;6.00;;;;;;;;;;5093751;28;20052;-75
2023/03/06 09:24:52;;;;;;;14.20;6.43;;;;;;;;;;5092590;28;20111;-75
2023/03/06 09:27:19;;;;;;;17.48;5.68;;;;;;;;;;5094747;28;20027;-75
2023/03/06 09:29:45;;;;;;;13.25;6.25;;;;;;;;;;5093457;28;20027;-75
2023/03/06 09:32:11;;;;;;;9.68;5.72;;;;;;;;;;5093436;28;20111;-75
2023/03/06 09:34:37;;;;;;;13.55;5.35;;;;;;;;;;5094736;28;20024;-74
2023/03/06 09:37:03;;;;;;;11.23;5.30;;;;;;;;;;5093386;28;20073;-76
2023/03/06 09:39:29;;;;;;;12.63;6.30;;;;;;;;;;5095080;28;20107;-76
2023/03/06 09:41:56;;;;;;;10.15;6.32;;;;;;;;;;5094195;28;20039;-77
2023/03/06 09:44:24;;;;;;;14.60;6.43;;;;;;;;;;5094073;28;20016;-75
2023/03/06 09:47:03;;;;;;;12.43;7.15;;;;;;;;;;5095538;28;20118;-74
2023/03/06 09:49:44;;;;;;;15.13;7.28;;;;;;;;;;5095284;28;20055;-74
2023/03/06 09:52:10;;;;;;;15.13;6.95;;;;;;;;;;5094115;28;20030;-75
2023/03/06 09:54:42;;;;;;;13.05;6.60;;;;;;;;;;5093671;28;20379;-74
2023/03/06 09:57:16;;;;;;;11.68;5.45;;;;;;;;;;5093637;28;20029;-74
2023/03/06 09:59:44;;;;;;;13.10;7.55;;;;;;;;;;5093555;28;20110;-75
2023/03/06 10:02:31;;;;;;;12.27;6.05;;;;;;;;;;5094796;28;20043;-75
2023/03/06 10:04:59;;;;;;;11.48;5.70;;;;;;;;;;5094572;28;20059;-75
2023/03/06 10:07:31;;;;;;;6.80;4.75;;;;;;;;;;5094967;28;20024;-75
2023/03/06 10:09:59;;;;;;;11.82;5.22;;;;;;;;;;5093573;28;20036;-74
2023/03/06 10:12:27;;;;;;;9.93;5.90;;;;;;;;;;5094828;28;20024;-74
2023/03/06 10:15:07;;;;;;;9.52;5.40;;;;;;;;;;5094756;28;20024;-76
2023/03/06 10:17:37;;;;;;;8.82;4.22;;;;;;;;;;5094798;28;20028;-76
2023/03/06 10:20:30;;;;;;;10.88;5.90;;;;;;;;;;5094505;28;20377;-76
2023/03/06 10:23:02;;;;;;;9.25;4.47;;;;;;;;;;5089502;28;20178;-75
2023/03/06 10:25:32;;;;;;;7.18;3.85;;;;;;;;;;5094229;28;20035;-73
2023/03/06 10:28:12;;;;;;;12.00;5.30;;;;;;;;;;5092872;28;20031;-74
2023/03/06 10:30:41;;;;;;;8.27;5.13;;;;;;;;;;5094154;28;20480;-73
2023/03/06 10:33:26;;;;;;;7.78;4.13;;;;;;;;;;5094258;28;20035;-74
2023/03/06 10:35:54;;;;;;;7.75;3.70;;;;;;;;;;5093938;28;20380;-74
2023/03/06 10:38:24;;;;;;;6.47;4.20;;;;;;;;;;5093940;28;20024;-75
2023/03/06 10:41:05;;;;;;;7.45;3.90;;;;;;;;;;5093958;28;20032;-74
2023/03/06 10:43:31;;;;;;;8.70;4.65;;;;;;;;;;5093947;28;20477;-75
2023/03/06 10:45:57;;;;;;;6.82;4.28;;;;;;;;;;5093799;28;20115;-76
2023/03/06 10:48:24;;;;;;;8.18;4.25;;;;;;;;;;5093935;28;20035;-74
2023/03/06 10:50:52;;;;;;;9.05;4.53;;;;;;;;;;5092585;28;20357;-74
2023/03/06 10:53:27;;;;;;;9.45;4.35;;;;;;;;;;5094151;28;20110;-74
2023/03/06 10:56:00;;;;;;;8.10;4.50;;;;;;;;;;5092795;28;20484;-74
2023/03/06 10:58:28;;;;;;;9.75;4.25;;;;;;;;;;5093745;28;20148;-74
2023/03/06 11:01:01;;;;;;;8.52;4.50;;;;;;;;;;5093895;28;20152;-74
2023/03/06 11:03:28;;;;;;;9.07;4.43;;;;;;;;;;5093197;28;20032;-76
2023/03/06 11:06:09;;;;;;;9.30;5.28;;;;;;;;;;5092266;28;20016;-75
2023/03/06 11:08:36;;;;;;;11.75;4.47;;;;;;;;;;5092214;28;20046;-75
2023/03/06 11:11:04;;;;;;;9.13;5.25;;;;;;;;;;5092176;28;20411;-75
2023/03/06 11:13:31;;;;;;;8.10;4.88;;;;;;;;;;5093542;28;20080;-75
2023/03/06 11:16:02;;;;;;;8.40;4.65;;;;;;;;;;5095277;28;20127;-75
2023/03/06 11:18:35;;;;;;;7.70;4.93;;;;;;;;;;5094644;28;20024;-76
2023/03/06 11:21:03;;;;;;;11.15;4.93;;;;;;;;;;5093894;28;20078;-76
2023/03/06 11:23:41;;;;;;;9.70;4.55;;;;;;;;;;5092062;28;20031;-76
2023/03/06 11:26:07;;;;;;;9.15;5.47;;;;;;;;;;5092012;28;20376;-75
2023/03/06 11:28:53;;;;;;;12.02;6.13;;;;;;;;;;5092091;28;20472;-75
2023/03/06 11:31:21;;;;;;;10.35;5.97;;;;;;;;;;5093106;28;20024;-74
2023/03/06 11:33:50;;;;;;;8.65;4.32;;;;;;;;;;5091930;28;20056;-74
2023/03/06 11:36:19;;;;;;;9.07;4.63;;;;;;;;;;5093491;28;20032;-73
2023/03/06 11:38:49;;;;;;;8.48;3.53;;;;;;;;;;5091801;28;20038;-75
2023/03/06 11:41:21;;;;;;;9.73;5.43;;;;;;;;;;5091692;28;20380;-74
2023/03/06 11:43:47;;;;;;;8.82;4.55;;;;;;;;;;5091971;28;20509;-74
2023/03/06 11:46:28;;;;;;;8.98;4.63;;;;;;;;;;5093382;28;20020;-75
2023/03/06 11:48:54;;;;;;;9.07;4.45;;;;;;;;;;5092431;28;20487;-76
2023/03/06 11:51:25;;;;;;;8.55;4.45;;;;;;;;;;5093143;28;20020;-75
2023/03/06 11:53:52;;;;;;;12.18;5.57;;;;;;;;;;5092860;28;20472;-75
2023/03/06 11:56:18;;;;;;;8.82;5.68;;;;;;;;;;5092796;28;20023;-75
2023/03/06 11:58:56;;;;;;;9.55;4.88;;;;;;;;;;5093293;28;20103;-75
2023/03/06 12:01:33;;;;;;;15.38;5.43;;;;;;;;;;5093032;28;20036;-75
2023/03/06 12:04:08;;;;;;;11.20;4.28;;;;;;;;;;5091689;28;20090;-75
2023/03/06 12:07:00;;;;;;;8.95;5.03;;;;;;;;;;5093141;28;20136;-76
2023/03/06 12:09:32;;;;;;;13.52;5.28;;;;;;;;;;5069537;28;20098;-75
2023/03/06 12:12:07;;;;;;;8.40;5.13;;;;;;;;;;5091549;28;20028;-76
2023/03/06 12:14:46;;;;;;;11.30;4.57;;;;;;;;;;5092652;28;20384;-76
2023/03/06 12:17:31;;;;;;;13.25;5.10;;;;;;;;;;5091485;28;20085;-76
2023/03/06 12:20:00;;;;;;;9.63;4.80;;;;;;;;;;5092064;28;20119;-75
2023/03/06 12:22:29;;;;;;;8.50;5.05;;;;;;;;;;5092597;28;20040;-76
2023/03/06 12:25:04;;;;;;;10.10;5.32;;;;;;;;;;5091637;28;20032;-76
2023/03/06 12:27:53;;;;;;;9.20;5.05;;;;;;;;;;5091905;28;20051;-75
2023/03/06 12:30:33;;;;;;;7.95;5.15;;;;;;;;;;5094300;28;20051;-76
2023/03/06 12:33:18;;;;;;;8.93;5.22;;;;;;;;;;5094232;28;20123;-75
2023/03/06 12:35:44;;;;;;;8.65;5.50;;;;;;;;;;5091960;28;20027;-76
2023/03/06 12:38:13;;;;;;;10.52;4.82;;;;;;;;;;5091573;28;20028;-76
2023/03/06 12:40:58;;;;;;;10.88;5.05;;;;;;;;;;5093278;28;20380;-76
2023/03/06 12:43:30;;;;;;;6.35;4.43;;;;;;;;;;5092762;28;20491;-76
2023/03/06 12:46:15;;;;;;;12.02;5.10;;;;;;;;;;5092899;28;20027;-77
2023/03/06 12:48:43;;;;;;;10.20;4.70;;;;;;;;;;5093055;28;20028;-74
2023/03/06 12:51:11;;;;;;;8.20;4.63;;;;;;;;;;5091100;28;20127;-76
2023/03/06 12:53:37;;;;;;;8.40;5.28;;;;;;;;;;5092781;28;20437;-75
2023/03/06 12:56:03;;;;;;;7.85;4.53;;;;;;;;;;5093528;28;20020;-75
2023/03/06 12:58:29;;;;;;;8.10;4.40;;;;;;;;;;5091144;28;20057;-76
2023/03/06 13:01:07;;;;;;;10.80;5.63;;;;;;;;;;5095286;28;20020;-73
2023/03/06 13:03:48;;;;;;;10.00;5.53;;;;;;;;;;5099067;28;20032;-76
2023/03/06 13:06:26;;;;;;;9.60;4.78;;;;;;;;;;5096964;28;20039;-76
2023/03/06 13:09:07;;;;;;;9.40;4.32;;;;;;;;;;5099318;28;20036;-76
2023/03/06 13:11:52;;;;;;;10.18;5.20;;;;;;;;;;5095767;28;20027;-76
2023/03/06 13:14:22;;;;;;;8.30;5.15;;;;;;;;;;5097468;28;20024;-76
2023/03/06 13:16:48;;;;;;;9.88;4.97;;;;;;;;;;5096932;28;20093;-76
2023/03/06 13:19:18;;;;;;;10.90;5.50;;;;;;;;;;5096681;28;20070;-74
2023/03/06 13:21:53;;;;;;;9.85;5.38;;;;;;;;;;5096090;28;20075;-75
2023/03/06 13:24:20;;;;;;;8.10;4.40;;;;;;;;;;5097194;28;20468;-75
2023/03/06 13:26:48;;;;;;;8.63;5.15;;;;;;;;;;5097554;28;20024;-75
2023/03/06 13:29:33;;;;;;;12.02;4.95;;;;;;;;;;5097412;28;20020;-75
2023/03/06 13:32:02;;;;;;;8.75;5.72;;;;;;;;;;5095545;28;20530;-75
2023/03/06 13:34:31;;;;;;;11.23;5.72;;;;;;;;;;5097548;28;20063;-74
2023/03/06 13:37:23;;;;;;;8.27;5.35;;;;;;;;;;5097399;28;20037;-75
2023/03/06 13:39:58;;;;;;;9.38;5.20;;;;;;;;;;5095930;28;20024;-75
2023/03/06 13:42:34;;;;;;;12.32;5.10;;;;;;;;;;5094444;28;20499;-77
2023/03/06 13:45:08;;;;;;;8.02;4.93;;;;;;;;;;5095791;28;20045;-76
2023/03/06 13:47:36;;;;;;;9.38;5.15;;;;;;;;;;5094346;28;20039;-75
2023/03/06 13:50:11;;;;;;;15.05;6.57;;;;;;;;;;5096730;28;20070;-75
2023/03/06 13:52:43;;;;;;;10.48;4.88;;;;;;;;;;5096845;28;20024;-75
2023/03/06 13:55:09;;;;;;;9.02;4.95;;;;;;;;;;5095239;28;20441;-75
2023/03/06 13:57:38;;;;;;;9.77;5.18;;;;;;;;;;5093713;28;20034;-75
2023/03/06 14:00:09;;;;;;;8.00;4.72;;;;;;;;;;5095673;28;20515;-75
2023/03/06 14:02:48;;;;;;;11.80;5.50;;;;;;;;;;5094816;28;20157;-74
2023/03/06 14:05:15;;;;;;;9.40;5.05;;;;;;;;;;5094872;28;20070;-78
2023/03/06 14:07:42;;;;;;;7.40;4.85;;;;;;;;;;5093385;28;20119;-75
2023/03/06 14:10:19;;;;;;;10.50;5.72;;;;;;;;;;5094104;28;20080;-76
2023/03/06 14:12:48;;;;;;;11.23;6.30;;;;;;;;;;5092243;28;20070;-76
2023/03/06 14:15:17;;;;;;;9.15;5.10;;;;;;;;;;5095187;28;20047;-76
2023/03/06 14:17:54;;;;;;;11.60;6.18;;;;;;;;;;5092707;28;20028;-76
2023/03/06 14:20:21;;;;;;;10.48;4.95;;;;;;;;;;5093053;28;20031;-76
2023/03/06 14:22:47;;;;;;;16.88;5.70;;;;;;;;;;5093861;28;20032;-76
2023/03/06 14:25:19;;;;;;;9.18;4.85;;;;;;;;;;5093056;28;20024;-76
2023/03/06 14:27:50;;;;;;;7.03;4.50;;;;;;;;;;5093143;28;20044;-75
2023/03/06 14:30:22;;;;;;;9.35;4.97;;;;;;;;;;5094683;28;20052;-76
2023/03/06 14:32:50;;;;;;;11.35;5.00;;;;;;;;;;5095337;28;20410;-76
2023/03/06 14:35:23;;;;;;;10.05;5.53;;;;;;;;;;5095027;28;20020;-76
2023/03/06 14:37:52;;;;;;;7.13;4.43;;;;;;;;;;5095457;28;20380;-76